createdAt,value
2019-04-07T00:00:48.886Z,60.77
2019-04-07T00:02:23.549Z,60.00
2019-04-07T00:03:58.597Z,60.49
2019-04-07T00:05:33.413Z,60.41
2019-04-07T00:07:08.340Z,60.85
2019-04-07T00:08:43.289Z,60.89
2019-04-07T00:10:18.099Z,61.15
2019-04-07T00:11:53.504Z,61.12
2019-04-07T00:13:28.251Z,61.63
2019-04-07T00:15:02.906Z,61.81
2019-04-07T00:16:39.097Z,61.65
2019-04-07T00:18:14.184Z,62.26
2019-04-07T00:19:48.835Z,62.33
2019-04-07T00:21:24.084Z,62.43
2019-04-07T00:22:58.780Z,62.81
2019-04-07T00:24:33.421Z,62.47
2019-04-07T00:26:08.186Z,62.55
2019-04-07T00:27:43.084Z,62.06
2019-04-07T00:29:18.305Z,62.11
2019-04-07T00:30:53.013Z,63.07
2019-04-07T00:32:27.685Z,63.25
2019-04-07T00:34:02.809Z,63.34
2019-04-07T00:35:38.072Z,63.04
2019-04-07T00:37:12.888Z,63.59
2019-04-07T00:38:48.275Z,63.93
2019-04-07T00:40:24.026Z,63.61
2019-04-07T00:41:59.219Z,64.46
2019-04-07T00:43:34.210Z,64.96
2019-04-07T00:45:09.742Z,65.88
2019-04-07T00:46:44.536Z,65.92
2019-04-07T00:48:19.504Z,65.39
2019-04-07T00:49:54.217Z,65.68
2019-04-07T00:51:28.959Z,66.13
2019-04-07T00:53:03.704Z,65.66
2019-04-07T00:54:38.399Z,65.68
2019-04-07T00:56:13.214Z,65.94
2019-04-07T00:57:48.276Z,65.08
2019-04-07T00:59:23.275Z,65.24
2019-04-07T01:00:58.819Z,65.44
2019-04-07T01:02:33.515Z,65.76
2019-04-07T01:04:08.742Z,65.92
2019-04-07T01:05:43.694Z,66.42
2019-04-07T01:07:18.968Z,66.31
2019-04-07T01:08:53.852Z,65.93
2019-04-07T01:10:28.491Z,65.65
2019-04-07T01:12:04.008Z,66.08
2019-04-07T01:13:38.780Z,66.32
2019-04-07T01:15:14.045Z,67.29
2019-04-07T01:16:48.827Z,66.56
2019-04-07T01:18:25.820Z,66.16
2019-04-07T01:19:59.823Z,67.05
2019-04-07T01:21:34.627Z,67.61
2019-04-07T01:23:09.382Z,68.07
2019-04-07T01:24:44.128Z,69.04
2019-04-07T01:26:18.969Z,68.54
2019-04-07T01:27:53.621Z,68.93
2019-04-07T01:29:28.294Z,69.82
2019-04-07T01:31:03.388Z,69.12
2019-04-07T01:32:38.057Z,68.60
2019-04-07T01:34:13.460Z,68.58
2019-04-07T01:35:50.286Z,68.90
2019-04-07T01:37:25.269Z,70.17
2019-04-07T01:39:00.050Z,69.68
2019-04-07T01:40:35.198Z,70.00
2019-04-07T01:42:24.671Z,70.17
2019-04-07T01:44:11.394Z,71.18
2019-04-07T01:46:05.266Z,70.88
2019-04-07T01:47:49.599Z,71.00
2019-04-07T01:49:38.082Z,70.86
2019-04-07T01:51:30.361Z,71.03
2019-04-07T01:53:27.981Z,71.13
2019-04-07T01:55:27.750Z,71.92
2019-04-07T01:57:26.424Z,73.11
2019-04-07T01:59:11.065Z,73.67
2019-04-07T02:01:04.483Z,73.67
2019-04-07T02:02:49.406Z,72.67
2019-04-07T02:04:36.718Z,70.64
2019-04-07T02:06:17.882Z,70.22
2019-04-07T02:08:14.623Z,69.88
2019-04-07T02:10:08.704Z,69.90
2019-04-07T02:12:01.761Z,70.00
2019-04-07T02:13:54.735Z,70.06
2019-04-07T02:15:42.304Z,70.11
2019-04-07T02:17:42.738Z,70.37
2019-04-07T02:19:35.948Z,70.37
2019-04-07T02:21:20.707Z,70.26
2019-04-07T02:23:20.704Z,70.37
2019-04-07T02:25:11.958Z,70.51
2019-04-07T02:27:15.279Z,70.90
2019-04-07T02:28:57.227Z,71.13
2019-04-07T02:30:45.997Z,71.18
2019-04-07T02:32:52.469Z,70.73
2019-04-07T02:34:34.151Z,70.99
2019-04-07T02:36:34.054Z,71.41
2019-04-07T02:38:37.006Z,70.71
2019-04-07T02:40:17.899Z,70.62
2019-04-07T02:41:58.880Z,70.28
2019-04-07T02:43:51.620Z,70.32
2019-04-07T02:45:47.517Z,70.31
2019-04-07T02:47:47.263Z,70.41
2019-04-07T02:49:50.003Z,70.20
2019-04-07T02:51:51.252Z,69.68
2019-04-07T02:53:45.483Z,69.67
2019-04-07T02:55:29.997Z,69.92
2019-04-07T02:57:39.044Z,69.42
2019-04-07T02:59:21.510Z,69.40
2019-04-07T03:01:13.955Z,69.41
2019-04-07T03:03:06.245Z,69.04
2019-04-07T03:05:06.445Z,69.87
2019-04-07T03:06:52.879Z,70.29
2019-04-07T03:08:40.067Z,69.74
2019-04-07T03:10:40.517Z,69.46
2019-04-07T03:12:37.593Z,69.52
2019-04-07T03:14:22.487Z,70.03
2019-04-07T03:16:22.406Z,69.93
2019-04-07T03:18:29.289Z,70.19
2019-04-07T03:20:08.710Z,70.32
2019-04-07T03:21:55.505Z,70.49
2019-04-07T03:23:49.759Z,70.46
2019-04-07T03:25:38.657Z,70.48
2019-04-07T03:27:36.122Z,70.52
2019-04-07T03:29:29.285Z,70.40
2019-04-07T03:31:12.751Z,70.43
2019-04-07T03:33:07.939Z,70.19
2019-04-07T03:34:51.513Z,70.27
2019-04-07T03:37:02.909Z,70.56
2019-04-07T03:38:29.303Z,70.68
2019-04-07T03:40:24.322Z,70.58
2019-04-07T03:42:17.998Z,70.79
2019-04-07T03:44:05.976Z,70.93
2019-04-07T03:45:53.859Z,70.99
2019-04-07T03:47:36.153Z,70.16
2019-04-07T03:49:20.337Z,70.58
2019-04-07T03:51:04.428Z,70.62
2019-04-07T03:52:56.925Z,70.42
2019-04-07T03:54:43.357Z,70.19
2019-04-07T03:56:31.593Z,70.25
2019-04-07T03:58:36.346Z,69.59
2019-04-07T04:01:22.302Z,70.09
2019-04-07T04:03:06.566Z,69.57
2019-04-07T04:04:49.851Z,69.77
2019-04-07T04:06:53.443Z,70.01
2019-04-07T04:08:54.905Z,70.27
2019-04-07T04:10:41.329Z,70.22
2019-04-07T04:12:29.933Z,72.10
2019-04-07T04:14:19.430Z,73.05
2019-04-07T04:16:16.410Z,73.24
2019-04-07T04:17:51.324Z,72.91
2019-04-07T04:19:27.134Z,73.01
2019-04-07T04:21:02.286Z,73.53
2019-04-07T04:22:37.750Z,73.83
2019-04-07T04:24:12.706Z,73.93
2019-04-07T04:25:47.336Z,73.01
2019-04-07T04:27:21.997Z,72.24
2019-04-07T04:28:56.718Z,74.18
2019-04-07T04:30:32.345Z,73.21
2019-04-07T04:32:07.701Z,71.90
2019-04-07T04:33:42.471Z,73.78
2019-04-07T04:35:17.126Z,75.48
2019-04-07T04:36:52.961Z,75.14
2019-04-07T04:38:28.361Z,74.64
2019-04-07T04:40:03.083Z,73.97
2019-04-07T04:41:38.005Z,73.52
2019-04-07T04:43:13.750Z,72.97
2019-04-07T04:44:48.527Z,72.35
2019-04-07T04:46:23.894Z,72.14
2019-04-07T04:48:00.343Z,72.04
2019-04-07T04:49:35.292Z,72.21
2019-04-07T04:51:11.755Z,73.48
2019-04-07T04:52:46.908Z,73.63
2019-04-07T04:54:21.670Z,73.79
2019-04-07T04:55:56.331Z,74.30
2019-04-07T04:57:32.043Z,73.43
2019-04-07T04:59:08.216Z,72.99
2019-04-07T05:00:43.031Z,72.69
2019-04-07T05:02:17.686Z,72.70
2019-04-07T05:03:52.577Z,72.35
2019-04-07T05:05:28.056Z,72.20
2019-04-07T05:07:03.407Z,72.31
2019-04-07T05:08:39.260Z,72.18
2019-04-07T05:10:13.940Z,71.78
2019-04-07T05:11:48.632Z,72.00
2019-04-07T05:13:23.264Z,72.22
2019-04-07T05:14:58.094Z,72.25
2019-04-07T05:16:34.443Z,71.74
2019-04-07T05:18:10.701Z,71.19
2019-04-07T05:19:46.619Z,70.93
2019-04-07T05:21:21.243Z,71.17
2019-04-07T05:22:55.976Z,71.03
2019-04-07T05:24:31.267Z,70.60
2019-04-07T05:26:06.058Z,70.23
2019-04-07T05:27:41.654Z,70.34
2019-04-07T05:29:17.043Z,69.76
2019-04-07T05:30:53.355Z,68.93
2019-04-07T05:32:28.697Z,66.62
2019-04-07T05:34:03.795Z,61.03
2019-04-07T05:35:39.553Z,57.52
2019-04-07T05:37:14.188Z,55.29
2019-04-07T05:38:48.867Z,55.99
2019-04-07T05:40:23.553Z,52.77
2019-04-07T05:41:58.221Z,52.19
2019-04-07T05:43:32.912Z,52.71
2019-04-07T05:45:08.261Z,53.18
2019-04-07T05:46:43.470Z,53.21
2019-04-07T05:48:20.126Z,52.54
2019-04-07T05:49:57.371Z,50.03
2019-04-07T05:51:31.361Z,48.45
2019-04-07T05:53:12.136Z,49.74
2019-04-07T05:54:49.546Z,47.10
2019-04-07T05:56:25.876Z,47.10
2019-04-07T05:57:58.712Z,47.45
2019-04-07T05:59:33.506Z,47.45
2019-04-07T06:01:08.236Z,46.52
2019-04-07T06:02:44.117Z,44.67
2019-04-07T06:04:19.318Z,43.20
2019-04-07T06:05:54.890Z,43.20
2019-04-07T06:07:31.540Z,44.29
2019-04-07T06:09:08.017Z,41.43
2019-04-07T06:10:42.765Z,41.43
2019-04-07T06:12:17.489Z,42.08
2019-04-07T06:13:52.880Z,42.08
2019-04-07T06:15:27.619Z,40.24
2019-04-07T06:17:02.306Z,41.86
2019-04-07T06:18:36.968Z,38.93
2019-04-07T06:20:15.032Z,38.63
2019-04-07T06:21:48.951Z,38.33
2019-04-07T06:23:26.009Z,38.69
2019-04-07T06:25:02.686Z,36.52
2019-04-07T06:26:41.541Z,37.05
2019-04-07T06:28:16.334Z,36.85
2019-04-07T06:29:50.166Z,38.99
2019-04-07T06:31:26.300Z,34.60
2019-04-07T06:33:01.683Z,35.70
2019-04-07T06:34:39.748Z,36.67
2019-04-07T06:36:13.293Z,35.52
2019-04-07T06:37:48.016Z,36.54
2019-04-07T06:39:23.217Z,32.92
2019-04-07T06:41:00.896Z,32.40
2019-04-07T06:42:34.345Z,31.22
2019-04-07T06:44:13.410Z,31.86
2019-04-07T06:45:54.236Z,35.97
2019-04-07T06:47:42.339Z,39.33
2019-04-07T06:49:29.525Z,37.16
2019-04-07T06:51:11.636Z,36.56
2019-04-07T06:53:17.872Z,35.35
2019-04-07T06:55:13.565Z,35.03
2019-04-07T06:57:10.595Z,35.79
2019-04-07T06:59:16.667Z,32.71
2019-04-07T07:01:25.798Z,34.24
2019-04-07T07:03:33.529Z,33.44
2019-04-07T07:05:13.733Z,31.94
2019-04-07T07:06:58.911Z,32.00
2019-04-07T07:08:58.447Z,32.95
2019-04-07T07:10:50.561Z,35.26
2019-04-07T07:12:47.120Z,34.16
2019-04-07T07:14:40.546Z,33.46
2019-04-07T07:16:17.347Z,31.23
2019-04-07T07:18:11.349Z,33.78
2019-04-07T07:20:05.936Z,31.16
2019-04-07T07:22:00.311Z,33.24
2019-04-07T07:23:37.648Z,32.50
2019-04-07T07:25:13.226Z,31.30
2019-04-07T07:26:49.501Z,29.57
2019-04-07T07:28:24.186Z,31.11
2019-04-07T07:29:58.849Z,29.35
2019-04-07T07:31:33.563Z,30.70
2019-04-07T07:33:10.973Z,31.16
2019-04-07T07:34:44.624Z,30.77
2019-04-07T07:36:21.511Z,31.41
2019-04-07T07:37:58.121Z,32.77
2019-04-07T07:39:32.102Z,31.81
2019-04-07T07:41:06.804Z,31.60
2019-04-07T07:42:43.114Z,29.00
2019-04-07T07:44:17.789Z,27.76
2019-04-07T07:45:52.492Z,30.28
2019-04-07T07:47:27.492Z,27.92
2019-04-07T07:49:02.248Z,27.01
2019-04-07T07:50:38.717Z,29.11
2019-04-07T07:52:16.572Z,28.01
2019-04-07T07:53:49.626Z,30.16
2019-04-07T07:55:25.196Z,26.49
2019-04-07T07:57:00.141Z,25.69
2019-04-07T07:58:35.525Z,26.22
2019-04-07T08:00:10.398Z,27.80
2019-04-07T08:01:47.069Z,28.94
2019-04-07T08:03:22.911Z,31.57
2019-04-07T08:04:59.180Z,31.25
2019-04-07T08:06:38.497Z,28.09
2019-04-07T08:08:11.564Z,31.31
2019-04-07T08:09:48.019Z,29.80
2019-04-07T08:11:22.908Z,33.55
2019-04-07T08:12:57.550Z,31.18
2019-04-07T08:14:33.190Z,32.31
2019-04-07T08:16:08.656Z,32.25
2019-04-07T08:17:43.376Z,34.34
2019-04-07T08:19:18.987Z,33.08
2019-04-07T08:20:53.760Z,29.95
2019-04-07T08:22:33.934Z,33.50
2019-04-07T08:24:05.203Z,34.69
2019-04-07T08:25:40.071Z,37.27
2019-04-07T08:27:14.983Z,36.92
2019-04-07T08:28:50.291Z,38.78
2019-04-07T08:30:26.056Z,36.20
2019-04-07T08:32:00.823Z,38.78
2019-04-07T08:33:35.579Z,39.51
2019-04-07T08:35:10.982Z,38.55
2019-04-07T08:36:47.190Z,36.15
2019-04-07T08:38:25.398Z,38.22
2019-04-07T08:39:59.399Z,36.25
2019-04-07T08:41:34.082Z,36.55
2019-04-07T08:43:08.782Z,34.28
2019-04-07T08:44:44.098Z,35.04
2019-04-07T08:46:18.957Z,35.47
2019-04-07T08:47:53.768Z,37.58
2019-04-07T08:49:31.101Z,40.05
2019-04-07T08:51:05.861Z,39.01
2019-04-07T08:52:42.675Z,37.28
2019-04-07T08:54:18.455Z,37.82
2019-04-07T08:55:54.707Z,37.60
2019-04-07T08:57:31.145Z,36.03
2019-04-07T08:59:09.483Z,37.91
2019-04-07T09:00:48.218Z,36.00
2019-04-07T09:02:26.896Z,40.39
2019-04-07T09:04:00.021Z,38.30
2019-04-07T09:05:35.418Z,37.75
2019-04-07T09:07:10.349Z,39.40
2019-04-07T09:08:45.067Z,40.91
2019-04-07T09:10:27.878Z,39.00
2019-04-07T09:12:02.568Z,39.06
2019-04-07T09:13:37.424Z,38.36
2019-04-07T09:15:15.513Z,39.11
2019-04-07T09:17:04.562Z,39.01
2019-04-07T09:19:04.916Z,38.32
2019-04-07T09:20:57.630Z,38.62
2019-04-07T09:22:56.657Z,37.57
2019-04-07T09:24:41.853Z,37.73
2019-04-07T09:26:24.205Z,37.89
2019-04-07T09:28:08.733Z,34.90
2019-04-07T09:30:10.054Z,39.22
2019-04-07T09:32:02.517Z,39.44
2019-04-07T09:33:58.971Z,39.19
2019-04-07T09:35:59.367Z,39.07
2019-04-07T09:37:56.013Z,40.86
2019-04-07T09:39:56.913Z,36.94
2019-04-07T09:41:45.125Z,39.22
2019-04-07T09:43:41.708Z,40.33
2019-04-07T09:45:39.475Z,38.09
2019-04-07T09:47:30.366Z,38.00
2019-04-07T09:49:23.840Z,37.79
2019-04-07T09:51:22.761Z,38.96
2019-04-07T09:53:19.691Z,39.35
2019-04-07T09:55:13.013Z,38.10
2019-04-07T09:57:16.800Z,39.11
2019-04-07T09:59:19.181Z,38.45
2019-04-07T10:01:09.097Z,38.18
2019-04-07T10:03:19.156Z,38.18
2019-04-07T10:05:12.048Z,39.67
2019-04-07T10:07:04.755Z,38.19
2019-04-07T10:08:55.480Z,37.36
2019-04-07T10:10:48.305Z,38.20
2019-04-07T10:12:45.889Z,39.68
2019-04-07T10:14:39.806Z,38.97
2019-04-07T10:16:35.143Z,40.12
2019-04-07T10:18:20.493Z,38.04
2019-04-07T10:20:07.470Z,37.22
2019-04-07T10:21:51.119Z,37.70
2019-04-07T10:23:37.570Z,37.14
2019-04-07T10:25:31.260Z,37.50
2019-04-07T10:27:18.702Z,36.82
2019-04-07T10:29:00.645Z,37.29
2019-04-07T10:30:49.977Z,37.63
2019-04-07T10:32:52.339Z,37.34
2019-04-07T10:34:34.886Z,37.68
2019-04-07T10:36:22.907Z,37.69
2019-04-07T10:38:07.547Z,38.17
2019-04-07T10:40:01.715Z,37.51
2019-04-07T10:41:50.814Z,37.65
2019-04-07T10:43:45.263Z,38.21
2019-04-07T10:45:45.909Z,38.76
2019-04-07T10:47:40.138Z,37.82
2019-04-07T10:49:24.404Z,39.30
2019-04-07T10:51:09.023Z,37.84
2019-04-07T10:53:01.403Z,38.27
2019-04-07T10:54:41.526Z,39.44
2019-04-07T10:56:35.922Z,39.67
2019-04-07T10:58:27.919Z,39.29
2019-04-07T11:00:21.346Z,40.57
2019-04-07T11:02:16.813Z,40.20
2019-04-07T11:04:02.434Z,40.91
2019-04-07T11:05:50.479Z,40.78
2019-04-07T11:07:54.658Z,40.76
2019-04-07T11:09:38.889Z,40.84
2019-04-07T11:11:24.685Z,38.92
2019-04-07T11:13:18.760Z,38.44
2019-04-07T11:15:21.090Z,38.71
2019-04-07T11:17:12.512Z,38.17
2019-04-07T11:19:18.510Z,39.19
2019-04-07T11:21:05.623Z,39.29
2019-04-07T11:23:15.550Z,37.58
2019-04-07T11:24:59.971Z,38.76
2019-04-07T11:26:53.874Z,38.76
2019-04-07T11:28:34.826Z,39.02
2019-04-07T11:30:16.950Z,38.41
2019-04-07T11:32:17.642Z,39.14
2019-04-07T11:34:15.252Z,38.74
2019-04-07T11:36:09.396Z,38.35
2019-04-07T11:37:54.061Z,38.24
2019-04-07T11:39:57.716Z,38.32
2019-04-07T11:41:55.710Z,38.31
2019-04-07T11:43:53.315Z,39.19
2019-04-07T11:45:56.304Z,39.23
2019-04-07T11:47:29.814Z,39.36
2019-04-07T11:49:13.386Z,38.82
2019-04-07T11:51:07.977Z,38.41
2019-04-07T11:53:13.619Z,38.36
2019-04-07T11:54:54.024Z,38.29
2019-04-07T11:57:06.585Z,38.01
2019-04-07T11:59:08.512Z,39.12
2019-04-07T12:01:14.399Z,39.81
2019-04-07T12:03:09.547Z,39.57
2019-04-07T12:04:57.866Z,39.85
2019-04-07T12:06:40.386Z,39.59
2019-04-07T12:08:36.240Z,38.43
2019-04-07T12:10:34.437Z,38.34
2019-04-07T12:12:18.315Z,37.75
2019-04-07T12:14:16.341Z,38.34
2019-04-07T12:16:08.004Z,38.34
2019-04-07T12:18:18.900Z,38.92
2019-04-07T12:20:04.318Z,38.92
2019-04-07T12:21:50.231Z,37.85
2019-04-07T12:23:38.229Z,38.02
2019-04-07T12:25:33.497Z,37.01
2019-04-07T12:27:25.821Z,37.33
2019-04-07T12:29:18.943Z,36.95
2019-04-07T12:31:10.300Z,37.20
2019-04-07T12:33:05.062Z,37.90
2019-04-07T12:35:05.224Z,38.15
2019-04-07T12:37:02.436Z,38.49
2019-04-07T12:38:57.448Z,38.49
2019-04-07T12:40:52.919Z,38.53
2019-04-07T12:42:54.569Z,39.00
2019-04-07T12:44:35.359Z,38.77
2019-04-07T12:46:36.829Z,38.72
2019-04-07T12:48:34.844Z,38.61
2019-04-07T12:50:24.177Z,39.36
2019-04-07T12:52:17.317Z,39.81
2019-04-07T12:54:17.911Z,39.49
2019-04-07T12:56:08.107Z,39.69
2019-04-07T12:57:58.225Z,39.52
2019-04-07T12:59:51.902Z,39.03
2019-04-07T13:01:47.096Z,39.12
2019-04-07T13:03:26.132Z,39.12
2019-04-07T13:05:11.014Z,37.57
2019-04-07T13:07:19.516Z,37.57
2019-04-07T13:09:21.527Z,37.72
2019-04-07T13:11:07.444Z,37.64
2019-04-07T13:13:02.674Z,37.64
2019-04-07T13:14:53.653Z,37.91
2019-04-07T13:16:45.918Z,37.76
2019-04-07T13:18:31.420Z,37.76
2019-04-07T13:20:24.333Z,37.06
2019-04-07T13:22:15.071Z,35.91
2019-04-07T13:24:13.293Z,36.09
2019-04-07T13:25:57.902Z,36.18
2019-04-07T13:27:54.325Z,36.14
2019-04-07T13:29:41.265Z,35.89
2019-04-07T13:31:21.306Z,35.55
2019-04-07T13:33:03.528Z,35.71
2019-04-07T13:34:57.926Z,35.69
2019-04-07T13:36:54.405Z,35.66
2019-04-07T13:38:46.936Z,35.86
2019-04-07T13:40:33.730Z,35.86
2019-04-07T13:42:14.250Z,36.43
2019-04-07T13:43:57.326Z,36.70
2019-04-07T13:45:50.581Z,36.73
2019-04-07T13:47:44.722Z,36.29
2019-04-07T13:49:38.109Z,36.43
2019-04-07T13:51:44.741Z,36.62
2019-04-07T13:53:39.367Z,36.72
2019-04-07T13:55:34.712Z,36.45
2019-04-07T13:57:32.054Z,36.02
2019-04-07T13:59:34.918Z,35.07
2019-04-07T14:01:22.129Z,35.07
2019-04-07T14:03:04.813Z,35.09
2019-04-07T14:04:56.154Z,34.66
2019-04-07T14:06:49.957Z,34.47
2019-04-07T14:08:41.601Z,33.76
2019-04-07T14:10:23.513Z,33.69
2019-04-07T14:12:22.800Z,34.52
2019-04-07T14:14:17.915Z,34.22
2019-04-07T14:16:21.224Z,33.85
2019-04-07T14:18:15.507Z,33.96
2019-04-07T14:19:57.737Z,33.72
2019-04-07T14:21:52.172Z,32.28
2019-04-07T14:23:44.724Z,32.32
2019-04-07T14:25:41.887Z,32.61
2019-04-07T14:27:22.071Z,33.42
2019-04-07T14:29:07.620Z,33.42
2019-04-07T14:31:01.361Z,33.90
2019-04-07T14:33:01.161Z,34.11
2019-04-07T14:34:53.658Z,34.11
2019-04-07T14:36:53.548Z,34.64
2019-04-07T14:38:54.244Z,34.63
2019-04-07T14:41:03.504Z,34.14
2019-04-07T14:42:47.566Z,33.81
2019-04-07T14:44:40.193Z,33.99
2019-04-07T14:46:26.295Z,33.63
2019-04-07T14:48:20.427Z,33.61
2019-04-07T14:50:17.078Z,34.06
2019-04-07T14:51:59.505Z,34.06
2019-04-07T14:53:55.137Z,34.01
2019-04-07T14:55:49.563Z,33.97
2019-04-07T14:57:41.631Z,33.85
2019-04-07T14:59:36.062Z,33.85
2019-04-07T15:01:22.601Z,34.14
2019-04-07T15:02:57.624Z,34.48
2019-04-07T15:04:38.730Z,34.34
2019-04-07T15:06:14.363Z,34.57
2019-04-07T15:08:06.797Z,35.00
2019-04-07T15:09:52.420Z,34.74
2019-04-07T15:11:49.100Z,34.26
2019-04-07T15:13:28.225Z,34.22
2019-04-07T15:15:05.931Z,33.90
2019-04-07T15:16:39.305Z,33.12
2019-04-07T15:18:14.100Z,33.03
2019-04-07T15:19:48.734Z,33.13
2019-04-07T15:21:23.963Z,33.21
2019-04-07T15:23:00.241Z,33.22
2019-04-07T15:24:35.793Z,33.44
2019-04-07T15:26:14.498Z,33.46
2019-04-07T15:27:48.111Z,33.64
2019-04-07T15:29:24.294Z,33.86
2019-04-07T15:30:59.015Z,33.03
2019-04-07T15:32:35.652Z,33.03
2019-04-07T15:34:11.941Z,33.38
2019-04-07T15:35:49.438Z,33.45
2019-04-07T15:37:24.683Z,33.30
2019-04-07T15:38:59.553Z,33.66
2019-04-07T15:40:36.251Z,33.63
2019-04-07T15:42:11.549Z,33.36
2019-04-07T15:43:47.251Z,33.25
2019-04-07T15:45:21.909Z,33.25
2019-04-07T15:46:57.458Z,32.76
2019-04-07T15:48:32.859Z,32.76
2019-04-07T15:50:08.524Z,32.91
2019-04-07T15:51:43.572Z,32.91
2019-04-07T15:53:23.213Z,31.68
2019-04-07T15:54:58.463Z,32.23
2019-04-07T15:56:33.657Z,32.43
2019-04-07T15:58:08.556Z,33.07
2019-04-07T15:59:43.405Z,33.07
2019-04-07T16:01:18.193Z,33.51
2019-04-07T16:02:53.626Z,33.00
2019-04-07T16:04:29.829Z,33.29
2019-04-07T16:06:05.805Z,32.75
2019-04-07T16:07:40.745Z,32.54
2019-04-07T16:09:29.840Z,32.08
2019-04-07T16:10:53.689Z,32.11
2019-04-07T16:12:29.792Z,32.59
2019-04-07T16:14:08.703Z,32.81
2019-04-07T16:15:44.637Z,33.10
2019-04-07T16:17:19.092Z,32.88
2019-04-07T16:18:53.704Z,32.90
2019-04-07T16:20:32.478Z,32.64
2019-04-07T16:22:06.032Z,32.37
2019-04-07T16:23:41.656Z,32.80
2019-04-07T16:25:17.090Z,32.42
2019-04-07T16:26:52.600Z,32.40
2019-04-07T16:28:28.187Z,32.52
2019-04-07T16:30:03.022Z,32.53
2019-04-07T16:31:39.329Z,32.29
2019-04-07T16:33:14.108Z,32.84
2019-04-07T16:34:49.705Z,32.96
2019-04-07T16:36:26.564Z,33.18
2019-04-07T16:38:01.818Z,33.42
2019-04-07T16:39:38.833Z,33.42
2019-04-07T16:41:14.778Z,33.53
2019-04-07T16:43:04.420Z,33.53
2019-04-07T16:44:26.636Z,33.58
2019-04-07T16:46:01.769Z,33.19
2019-04-07T16:47:37.119Z,33.52
2019-04-07T16:49:13.724Z,33.52
2019-04-07T16:50:54.753Z,33.53
2019-04-07T16:52:31.103Z,33.62
2019-04-07T16:54:03.023Z,33.73
2019-04-07T16:55:40.298Z,34.26
2019-04-07T16:57:16.246Z,34.06
2019-04-07T16:58:50.984Z,34.14
2019-04-07T17:00:25.918Z,34.16
2019-04-07T17:02:00.714Z,34.53
2019-04-07T17:03:35.494Z,35.00
2019-04-07T17:05:10.316Z,35.00
2019-04-07T17:06:44.999Z,34.68
2019-04-07T17:08:22.521Z,34.85
2019-04-07T17:09:57.459Z,34.60
2019-04-07T17:11:32.511Z,35.30
2019-04-07T17:13:17.880Z,34.60
2019-04-07T17:14:43.612Z,35.42
2019-04-07T17:16:22.545Z,35.80
2019-04-07T17:17:55.955Z,35.68
2019-04-07T17:19:30.735Z,36.34
2019-04-07T17:21:09.464Z,36.01
2019-04-07T17:22:47.648Z,36.01
2019-04-07T17:24:25.042Z,35.92
2019-04-07T17:25:57.705Z,36.12
2019-04-07T17:27:32.694Z,35.90
2019-04-07T17:29:08.847Z,35.90
2019-04-07T17:30:44.476Z,36.61
2019-04-07T17:32:19.990Z,36.38
2019-04-07T17:33:55.130Z,36.38
2019-04-07T17:35:30.691Z,36.82
2019-04-07T17:37:05.533Z,36.75
2019-04-07T17:38:58.456Z,36.68
2019-04-07T17:40:38.235Z,37.20
2019-04-07T17:42:14.407Z,37.83
2019-04-07T17:44:05.677Z,37.78
2019-04-07T17:45:54.614Z,37.78
2019-04-07T17:47:39.371Z,38.58
2019-04-07T17:49:26.318Z,38.58
2019-04-07T17:51:13.891Z,38.48
2019-04-07T17:53:14.964Z,38.88
2019-04-07T17:55:00.180Z,39.35
2019-04-07T17:56:43.167Z,39.48
2019-04-07T17:58:27.410Z,39.48
2019-04-07T18:00:20.268Z,39.48
2019-04-07T18:02:08.629Z,39.59
2019-04-07T18:04:08.246Z,39.07
2019-04-07T18:06:05.782Z,39.03
2019-04-07T18:08:01.831Z,39.32
2019-04-07T18:09:53.302Z,39.76
2019-04-07T18:11:41.976Z,39.73
2019-04-07T18:13:44.987Z,39.45
2019-04-07T18:15:31.512Z,39.19
2019-04-07T18:17:26.843Z,38.92
2019-04-07T18:19:16.031Z,39.60
2019-04-07T18:21:15.439Z,39.56
2019-04-07T18:23:07.826Z,39.68
2019-04-07T18:24:51.112Z,38.50
2019-04-07T18:26:41.956Z,39.14
2019-04-07T18:28:54.084Z,39.18
2019-04-07T18:30:45.394Z,39.63
2019-04-07T18:32:48.048Z,39.73
2019-04-07T18:34:48.172Z,39.73
2019-04-07T18:36:44.658Z,39.76
2019-04-07T18:38:28.577Z,40.16
2019-04-07T18:40:37.627Z,39.85
2019-04-07T18:42:22.070Z,39.75
2019-04-07T18:44:21.651Z,39.75
2019-04-07T18:46:16.941Z,39.89
2019-04-07T18:48:11.330Z,39.84
2019-04-07T18:50:07.610Z,39.93
2019-04-07T18:51:59.240Z,40.21
2019-04-07T18:53:49.256Z,40.52
2019-04-07T18:55:32.146Z,40.70
2019-04-07T18:57:21.625Z,40.70
2019-04-07T18:59:11.708Z,40.67
2019-04-07T19:01:17.017Z,40.64
2019-04-07T19:03:29.661Z,40.84
2019-04-07T19:05:14.422Z,40.84
2019-04-07T19:07:15.107Z,40.67
2019-04-07T19:09:14.250Z,40.70
2019-04-07T19:11:10.692Z,40.70
2019-04-07T19:13:06.463Z,41.43
2019-04-07T19:15:05.621Z,41.18
2019-04-07T19:16:54.685Z,41.18
2019-04-07T19:18:47.138Z,41.35
2019-04-07T19:20:40.364Z,40.96
2019-04-07T19:22:32.523Z,40.96
2019-04-07T19:24:33.520Z,40.81
2019-04-07T19:26:24.695Z,40.81
2019-04-07T19:28:17.758Z,41.07
2019-04-07T19:30:13.224Z,41.37
2019-04-07T19:31:59.699Z,41.12
2019-04-07T19:34:00.939Z,41.12
2019-04-07T19:35:44.929Z,41.70
2019-04-07T19:37:34.810Z,41.65
2019-04-07T19:39:39.254Z,41.38
2019-04-07T19:41:43.676Z,41.38
2019-04-07T19:43:29.579Z,41.47
2019-04-07T19:45:26.918Z,41.47
2019-04-07T19:47:14.993Z,41.82
2019-04-07T19:49:07.879Z,41.52
2019-04-07T19:51:01.626Z,41.59
2019-04-07T19:52:54.178Z,41.59
2019-04-07T19:55:03.698Z,41.59
2019-04-07T19:56:50.032Z,41.90
2019-04-07T19:58:51.361Z,41.63
2019-04-07T20:00:44.610Z,41.55
2019-04-07T20:02:39.121Z,41.78
2019-04-07T20:04:32.766Z,41.91
2019-04-07T20:06:24.824Z,41.91
2019-04-07T20:08:21.461Z,42.09
2019-04-07T20:10:20.663Z,42.03
2019-04-07T20:12:16.315Z,42.80
2019-04-07T20:14:10.344Z,42.80
2019-04-07T20:16:05.218Z,43.23
2019-04-07T20:18:01.909Z,42.80
2019-04-07T20:19:58.330Z,42.89
2019-04-07T20:21:42.781Z,43.11
2019-04-07T20:23:34.458Z,43.21
2019-04-07T20:25:20.394Z,43.13
2019-04-07T20:27:13.976Z,43.13
2019-04-07T20:29:09.394Z,43.34
2019-04-07T20:31:10.465Z,43.52
2019-04-07T20:33:16.616Z,43.49
2019-04-07T20:35:14.251Z,42.94
2019-04-07T20:37:12.974Z,42.94
2019-04-07T20:39:02.238Z,43.35
2019-04-07T20:40:56.287Z,43.34
2019-04-07T20:42:40.096Z,43.34
2019-04-07T20:44:34.417Z,43.43
2019-04-07T20:46:27.414Z,43.20
2019-04-07T20:48:13.642Z,43.47
2019-04-07T20:49:58.884Z,43.47
2019-04-07T20:51:57.096Z,43.65
2019-04-07T20:53:49.408Z,43.84
2019-04-07T20:55:52.382Z,44.13
2019-04-07T20:57:43.308Z,44.35
2019-04-07T20:59:31.434Z,44.54
2019-04-07T21:01:26.432Z,44.55
2019-04-07T21:03:38.460Z,45.15
2019-04-07T21:05:37.821Z,44.94
2019-04-07T21:07:28.912Z,44.75
2019-04-07T21:09:21.861Z,44.75
2019-04-07T21:11:15.167Z,45.22
2019-04-07T21:13:02.347Z,45.32
2019-04-07T21:14:52.001Z,45.82
2019-04-07T21:16:48.429Z,45.76
2019-04-07T21:18:37.105Z,45.81
2019-04-07T21:20:30.838Z,45.90
2019-04-07T21:22:14.177Z,45.88
2019-04-07T21:24:07.812Z,45.73
2019-04-07T21:25:52.067Z,45.88
2019-04-07T21:27:44.059Z,45.88
2019-04-07T21:29:24.656Z,45.88
2019-04-07T21:31:07.987Z,45.61
2019-04-07T21:33:00.618Z,45.61
2019-04-07T21:35:04.368Z,45.59
2019-04-07T21:36:51.222Z,45.66
2019-04-07T21:38:56.951Z,46.03
2019-04-07T21:40:45.877Z,46.37
2019-04-07T21:42:42.603Z,46.56
2019-04-07T21:44:35.812Z,46.65
2019-04-07T21:46:32.677Z,46.28
2019-04-07T21:48:30.343Z,46.49
2019-04-07T21:50:24.584Z,46.49
2019-04-07T21:52:21.735Z,46.32
2019-04-07T21:54:05.880Z,46.89
2019-04-07T21:55:59.729Z,46.92
2019-04-07T21:57:57.026Z,47.12
2019-04-07T21:59:38.057Z,46.79
2019-04-07T22:01:18.638Z,46.90
2019-04-07T22:03:23.508Z,46.87
2019-04-07T22:05:27.271Z,47.11
2019-04-07T22:07:19.533Z,47.54
2019-04-07T22:09:06.850Z,46.80
2019-04-07T22:10:41.662Z,46.82
2019-04-07T22:12:16.802Z,46.32
2019-04-07T22:13:53.374Z,46.06
2019-04-07T22:15:35.081Z,45.98
2019-04-07T22:17:05.352Z,46.69
2019-04-07T22:18:41.800Z,46.69
2019-04-07T22:20:18.824Z,46.49
2019-04-07T22:21:55.796Z,46.20
2019-04-07T22:23:30.694Z,46.42
2019-04-07T22:25:08.242Z,45.94
2019-04-07T22:26:47.058Z,45.92
2019-04-07T22:28:18.989Z,45.68
2019-04-07T22:29:53.715Z,45.40
2019-04-07T22:31:33.719Z,45.08
2019-04-07T22:33:09.194Z,44.92
2019-04-07T22:34:44.075Z,44.74
2019-04-07T22:36:18.889Z,44.73